< < Back
Terminal Aerodrome Forecast


Current Version              Previous Versions:   1  2  3  4  5  6  7  8  9  

Terminal Aerodrome Forecast

438
FTUS42 KGSP 290024 RRA
TAFCLT
TAF
KCLT 290024Z 2900/2924 25005KT P6SM FEW040 SCT200
      TEMPO 2900/2904 SCT040 BKN200
     FM291200 31003KT P6SM FEW200
     FM291500 01003KT P6SM FEW060 SCT250
     FM292100 21004KT P6SM BKN060 PROB30 2921/2924 4SM -TSRA
      OVC040CB=

Latest METAR

148
SAUS70 KWBC 291400 RRE
MTRCLT
METAR KCLT 291352Z VRB05KT 10SM FEW250 28/17 A3000 RMK AO2 SLP148
T02780172


USA.gov is the U.S. government's official web portal to all federal, state and local government web resources and services.